createdAt,value
2019-01-18T00:01:51.016Z,7.07
2019-01-18T00:04:21.928Z,5.80
2019-01-18T00:06:52.869Z,5.63
2019-01-18T00:09:24.912Z,6.60
2019-01-18T00:11:56.007Z,6.63
2019-01-18T00:14:26.927Z,6.47
2019-01-18T00:16:58.271Z,6.60
2019-01-18T00:19:29.224Z,5.20
2019-01-18T00:22:00.257Z,6.30
2019-01-18T00:24:31.164Z,6.83
2019-01-18T00:27:02.309Z,7.40
2019-01-18T00:29:33.213Z,8.40
2019-01-18T00:32:04.483Z,8.03
2019-01-18T00:34:35.544Z,8.37
2019-01-18T00:37:06.916Z,8.43
2019-01-18T00:39:38.034Z,10.20
2019-01-18T00:42:09.169Z,9.90
2019-01-18T00:44:40.171Z,9.53
2019-01-18T00:47:11.879Z,10.30
2019-01-18T00:49:43.440Z,9.23
2019-01-18T00:52:15.459Z,8.47
2019-01-18T00:54:46.481Z,7.60
2019-01-18T00:57:18.476Z,6.80
2019-01-18T00:59:49.383Z,8.13
2019-01-18T01:02:20.464Z,7.73
2019-01-18T01:04:51.418Z,7.43
2019-01-18T01:07:22.541Z,7.23
2019-01-18T01:09:53.717Z,7.23
2019-01-18T01:12:25.033Z,6.77
2019-01-18T01:17:24.562Z,6.37
2019-01-18T01:19:55.852Z,6.13
2019-01-18T01:22:27.050Z,5.67
2019-01-18T01:24:58.471Z,5.83
2019-01-18T01:27:29.537Z,5.40
2019-01-18T01:30:00.511Z,3.10
2019-01-18T01:32:31.676Z,0.90
2019-01-18T01:35:02.653Z,1.77
2019-01-18T01:37:33.772Z,2.00
2019-01-18T01:40:08.185Z,2.60
2019-01-18T01:42:39.181Z,1.60
2019-01-18T01:45:10.646Z,1.70
2019-01-18T01:47:41.779Z,1.47
2019-01-18T01:50:21.390Z,0.97
2019-01-18T01:52:52.696Z,1.10
2019-01-18T01:55:24.656Z,1.10
2019-01-18T01:57:57.257Z,0.30
2019-01-18T02:00:29.568Z,0.40
2019-01-18T02:03:00.813Z,0.50
2019-01-18T02:05:31.719Z,0.50
2019-01-18T02:08:02.747Z,0.67
2019-01-18T02:10:33.686Z,0.40
2019-01-18T02:13:05.956Z,0.23
2019-01-18T02:15:36.955Z,0.20
2019-01-18T02:18:08.294Z,0.30
2019-01-18T02:20:39.399Z,0.83
2019-01-18T02:23:10.464Z,0.30
2019-01-18T02:25:41.447Z,0.10
2019-01-18T02:28:12.414Z,0.30
2019-01-18T02:30:46.585Z,0.70
2019-01-18T02:33:17.527Z,0.50
2019-01-18T02:35:48.479Z,0.53
2019-01-18T02:38:19.508Z,0.43
2019-01-18T02:40:50.458Z,0.53
2019-01-18T02:43:21.434Z,0.30
2019-01-18T02:45:53.432Z,0.60
2019-01-18T02:48:24.555Z,0.50
2019-01-18T02:50:55.550Z,0.33
2019-01-18T02:53:26.493Z,0.80
2019-01-18T02:55:57.628Z,0.63
2019-01-18T02:58:29.519Z,0.20
2019-01-18T03:01:00.431Z,0.97
2019-01-18T03:03:31.501Z,0.40
2019-01-18T03:06:02.445Z,0.73
2019-01-18T03:08:33.621Z,0.40
2019-01-18T03:11:04.683Z,1.00
2019-01-18T03:13:35.766Z,0.63
2019-01-18T03:16:06.767Z,0.47
2019-01-18T03:18:37.805Z,0.53
2019-01-18T03:21:08.748Z,0.90
2019-01-18T03:23:39.710Z,1.20
2019-01-18T03:26:10.798Z,0.80
2019-01-18T03:28:41.882Z,0.80
2019-01-18T03:31:12.910Z,0.97
2019-01-18T03:33:43.876Z,1.07
2019-01-18T03:36:15.010Z,0.80
2019-01-18T03:38:45.936Z,0.50
2019-01-18T03:41:16.869Z,0.23
2019-01-18T03:43:47.835Z,0.50
2019-01-18T03:46:18.745Z,0.60
2019-01-18T03:48:49.714Z,0.83
2019-01-18T03:51:20.567Z,0.40
2019-01-18T03:53:51.889Z,0.20
2019-01-18T03:56:22.781Z,0.20
2019-01-18T03:58:55.943Z,0.20
2019-01-18T04:01:26.917Z,0.57
2019-01-18T04:03:57.964Z,0.23
2019-01-18T04:06:28.960Z,0.60
2019-01-18T04:09:00.049Z,0.40
2019-01-18T04:11:31.046Z,0.47
2019-01-18T04:14:02.354Z,0.60
2019-01-18T04:16:33.710Z,0.40
2019-01-18T04:19:04.881Z,0.77
2019-01-18T04:21:36.158Z,0.70
2019-01-18T04:24:07.288Z,0.70
2019-01-18T04:26:38.247Z,0.53
2019-01-18T04:29:09.225Z,0.50
2019-01-18T04:31:40.093Z,0.53
2019-01-18T04:34:11.663Z,0.90
2019-01-18T04:36:42.958Z,0.70
2019-01-18T04:39:13.885Z,0.70
2019-01-18T04:41:45.614Z,1.17
2019-01-18T04:44:16.655Z,0.70
2019-01-18T04:46:48.138Z,1.17
2019-01-18T04:49:20.225Z,0.40
2019-01-18T04:51:51.870Z,0.77
2019-01-18T04:54:23.900Z,0.53
2019-01-18T04:56:55.128Z,0.90
2019-01-18T04:59:26.623Z,2.80
2019-01-18T05:01:57.552Z,1.30
2019-01-18T05:04:28.603Z,0.60
2019-01-18T05:07:00.110Z,0.80
2019-01-18T05:09:31.249Z,1.23
2019-01-18T05:12:02.266Z,0.70
2019-01-18T05:14:33.389Z,1.13
2019-01-18T05:17:04.434Z,1.47
2019-01-18T05:19:35.395Z,0.50
2019-01-18T05:22:06.506Z,0.60
2019-01-18T05:24:37.497Z,0.90
2019-01-18T05:27:08.638Z,0.77
2019-01-18T05:29:39.652Z,1.30
2019-01-18T05:32:11.261Z,0.60
2019-01-18T05:34:42.333Z,1.30
2019-01-18T05:37:13.930Z,1.00
2019-01-18T05:39:45.085Z,1.20
2019-01-18T05:42:16.774Z,1.20
2019-01-18T05:44:48.438Z,1.40
2019-01-18T05:47:19.591Z,1.20
2019-01-18T05:49:50.650Z,1.00
2019-01-18T05:52:21.791Z,0.70
2019-01-18T05:54:52.852Z,1.03
2019-01-18T05:57:23.806Z,0.90
2019-01-18T05:59:56.127Z,1.07
2019-01-18T06:02:24.028Z,2.60
2019-01-18T06:07:41.322Z,3.90
2019-01-18T06:10:13.545Z,2.00
2019-01-18T06:12:44.671Z,0.70
2019-01-18T06:15:15.864Z,2.40
2019-01-18T06:17:46.756Z,4.03
2019-01-18T06:20:17.992Z,2.20
2019-01-18T06:22:49.376Z,2.07
2019-01-18T06:25:20.188Z,1.30
2019-01-18T06:27:51.150Z,1.33
2019-01-18T06:30:22.029Z,2.10
2019-01-18T06:32:52.957Z,1.20
2019-01-18T06:35:23.794Z,3.57
2019-01-18T06:37:54.668Z,6.33
2019-01-18T06:40:25.506Z,5.00
2019-01-18T06:42:57.559Z,6.40
2019-01-18T06:45:29.500Z,13.27
2019-01-18T06:48:00.462Z,13.50
2019-01-18T06:50:31.273Z,12.53
2019-01-18T06:53:02.458Z,12.40
2019-01-18T06:55:33.511Z,29.97
2019-01-18T06:58:04.639Z,6.47
2019-01-18T07:00:36.320Z,22.23
2019-01-18T07:03:07.955Z,8.80
2019-01-18T07:05:38.864Z,3.80
2019-01-18T07:08:10.027Z,4.13
2019-01-18T07:10:40.817Z,9.37
2019-01-18T07:13:11.818Z,4.87
2019-01-18T07:15:42.897Z,3.73
2019-01-18T07:18:13.873Z,11.90
2019-01-18T07:20:44.859Z,7.77
2019-01-18T07:23:16.531Z,6.80
2019-01-18T07:25:48.309Z,8.23
2019-01-18T07:28:19.122Z,5.70
2019-01-18T07:30:50.282Z,11.30
2019-01-18T07:33:21.368Z,8.40
2019-01-18T07:35:52.705Z,2.87
2019-01-18T07:38:23.752Z,4.93
2019-01-18T07:40:54.640Z,3.83
2019-01-18T07:43:26.909Z,3.27
2019-01-18T07:45:58.307Z,9.10
2019-01-18T07:48:29.763Z,6.90
2019-01-18T07:51:01.047Z,3.80
2019-01-18T07:53:32.592Z,3.60
2019-01-18T07:56:03.644Z,2.23
2019-01-18T07:58:35.152Z,4.13
2019-01-18T08:01:06.623Z,5.60
2019-01-18T08:03:38.448Z,4.33
2019-01-18T08:06:09.728Z,3.37
2019-01-18T08:08:41.330Z,3.80
2019-01-18T08:11:12.434Z,3.20
2019-01-18T08:13:43.329Z,6.83
2019-01-18T08:16:14.444Z,6.63
2019-01-18T08:18:45.660Z,8.90
2019-01-18T08:21:16.896Z,6.10
2019-01-18T08:23:48.199Z,9.17
2019-01-18T08:26:19.538Z,11.40
2019-01-18T08:28:50.507Z,8.00
2019-01-18T08:31:21.560Z,11.37
2019-01-18T08:33:52.606Z,9.60
2019-01-18T08:36:23.897Z,8.43
2019-01-18T08:38:55.209Z,6.40
2019-01-18T08:41:26.484Z,8.27
2019-01-18T08:43:57.662Z,12.73
2019-01-18T08:46:29.095Z,8.57
2019-01-18T08:49:01.241Z,7.80
2019-01-18T08:51:33.078Z,6.90
2019-01-18T08:54:05.006Z,9.20
2019-01-18T08:56:36.688Z,11.67
2019-01-18T08:59:08.346Z,10.17
2019-01-18T09:01:40.025Z,8.90
2019-01-18T09:04:11.583Z,7.47
2019-01-18T09:06:42.730Z,6.07
2019-01-18T09:09:13.855Z,4.87
2019-01-18T09:11:45.556Z,5.27
2019-01-18T09:14:19.585Z,18.17
2019-01-18T09:16:50.341Z,5.97
2019-01-18T09:19:21.920Z,5.50
2019-01-18T09:21:53.257Z,4.40
2019-01-18T09:24:25.037Z,3.90
2019-01-18T09:26:56.195Z,4.33
2019-01-18T09:29:27.508Z,4.00
2019-01-18T09:31:59.568Z,4.03
2019-01-18T09:34:31.295Z,4.30
2019-01-18T09:37:02.579Z,4.60
2019-01-18T09:39:34.667Z,7.17
2019-01-18T09:42:06.674Z,5.30
2019-01-18T09:44:39.105Z,5.27
2019-01-18T09:47:10.929Z,4.33
2019-01-18T09:49:42.872Z,4.53
2019-01-18T09:52:14.071Z,4.47
2019-01-18T09:54:45.322Z,4.80
2019-01-18T09:57:16.875Z,4.00
2019-01-18T09:59:48.255Z,3.47
2019-01-18T10:02:19.553Z,4.40
2019-01-18T10:04:52.225Z,3.50
2019-01-18T10:07:23.809Z,3.70
2019-01-18T10:09:55.398Z,3.20
2019-01-18T10:12:26.735Z,4.60
2019-01-18T10:14:59.605Z,7.30
2019-01-18T10:17:31.123Z,7.63
2019-01-18T10:20:02.643Z,5.83
2019-01-18T10:22:34.939Z,3.43
2019-01-18T10:25:07.720Z,4.13
2019-01-18T10:27:39.219Z,4.13
2019-01-18T10:30:16.171Z,3.67
2019-01-18T10:32:47.718Z,1.90
2019-01-18T10:35:20.087Z,3.83
2019-01-18T10:37:51.615Z,1.87
2019-01-18T10:40:24.619Z,2.50
2019-01-18T10:42:56.353Z,2.90
2019-01-18T10:45:27.892Z,2.67
2019-01-18T10:48:02.305Z,3.23
2019-01-18T10:50:34.736Z,3.00
2019-01-18T10:53:06.584Z,2.87
2019-01-18T10:55:38.096Z,2.53
2019-01-18T10:58:09.846Z,3.07
2019-01-18T11:00:41.405Z,2.40
2019-01-18T11:03:13.242Z,2.33
2019-01-18T11:05:45.052Z,2.67
2019-01-18T11:08:17.560Z,2.77
2019-01-18T11:10:49.377Z,3.00
2019-01-18T11:13:20.663Z,3.07
2019-01-18T11:15:52.208Z,3.77
2019-01-18T11:18:23.686Z,3.53
2019-01-18T11:21:10.866Z,4.53
2019-01-18T11:23:42.749Z,3.60
2019-01-18T11:26:14.518Z,3.63
2019-01-18T11:28:46.138Z,3.03
2019-01-18T11:31:18.025Z,3.77
2019-01-18T11:33:49.207Z,3.20
2019-01-18T11:36:21.312Z,3.43
2019-01-18T11:38:52.732Z,2.87
2019-01-18T11:41:24.160Z,3.00
2019-01-18T11:43:55.590Z,3.00
2019-01-18T11:46:27.661Z,2.80
2019-01-18T11:48:59.319Z,2.77
2019-01-18T11:51:30.832Z,3.87
2019-01-18T11:54:05.531Z,3.10
2019-01-18T11:56:37.130Z,4.20
2019-01-18T11:59:08.604Z,2.73
2019-01-18T12:01:40.805Z,3.47
2019-01-18T12:04:12.650Z,2.77
2019-01-18T12:06:44.531Z,3.10
2019-01-18T12:09:16.243Z,2.83
2019-01-18T12:11:47.725Z,2.40
2019-01-18T12:14:19.245Z,3.40
2019-01-18T12:16:50.810Z,3.40
2019-01-18T12:19:22.412Z,3.43
2019-01-18T12:21:54.370Z,3.33
2019-01-18T12:24:26.007Z,3.27
2019-01-18T12:26:57.942Z,3.00
2019-01-18T12:29:29.191Z,2.57
2019-01-18T12:32:00.966Z,3.70
2019-01-18T12:34:32.506Z,4.23
2019-01-18T12:37:03.827Z,3.77
2019-01-18T12:39:36.407Z,2.30
2019-01-18T12:42:07.865Z,3.23
2019-01-18T12:44:39.709Z,3.80
2019-01-18T12:47:12.352Z,3.80
2019-01-18T12:49:44.151Z,4.43
2019-01-18T12:52:16.410Z,5.47
2019-01-18T12:54:47.612Z,9.97
2019-01-18T12:57:19.101Z,7.23
2019-01-18T12:59:50.672Z,6.20
2019-01-18T13:02:21.969Z,5.93
2019-01-18T13:04:53.227Z,4.80
2019-01-18T13:07:24.695Z,5.30
2019-01-18T13:09:56.067Z,6.70
2019-01-18T13:12:27.557Z,9.10
2019-01-18T13:14:59.346Z,11.93
2019-01-18T13:17:30.968Z,27.37
2019-01-18T13:20:02.788Z,23.77
2019-01-18T13:22:34.456Z,31.47
2019-01-18T13:25:07.929Z,10.60
2019-01-18T13:27:39.217Z,3.00
2019-01-18T13:30:14.191Z,9.57
2019-01-18T13:32:45.897Z,6.47
2019-01-18T13:35:17.737Z,6.83
2019-01-18T13:37:49.470Z,4.53
2019-01-18T13:40:21.687Z,5.73
2019-01-18T13:42:53.718Z,5.60
2019-01-18T13:45:25.158Z,5.50
2019-01-18T13:47:56.971Z,3.83
2019-01-18T13:50:28.514Z,5.37
2019-01-18T13:53:00.226Z,17.60
2019-01-18T13:55:31.794Z,4.37
2019-01-18T13:58:02.997Z,4.30
2019-01-18T14:00:34.308Z,3.97
2019-01-18T14:03:06.439Z,4.27
2019-01-18T14:05:38.503Z,4.00
2019-01-18T14:08:09.967Z,3.93
2019-01-18T14:10:42.664Z,4.47
2019-01-18T14:13:15.960Z,4.17
2019-01-18T14:15:48.566Z,5.43
2019-01-18T14:18:19.749Z,4.47
2019-01-18T14:20:50.683Z,5.33
2019-01-18T14:23:24.195Z,5.43
2019-01-18T14:25:56.965Z,4.07
2019-01-18T14:28:28.958Z,4.17
2019-01-18T14:31:00.880Z,3.77
2019-01-18T14:33:32.542Z,2.30
2019-01-18T14:36:04.151Z,3.20
2019-01-18T14:38:36.166Z,2.80
2019-01-18T14:41:07.756Z,3.40
2019-01-18T14:43:38.978Z,4.53
2019-01-18T14:46:10.407Z,4.70
2019-01-18T14:48:41.831Z,6.40
2019-01-18T14:51:13.191Z,6.70
2019-01-18T14:54:11.477Z,6.33
2019-01-18T14:56:42.952Z,5.37
2019-01-18T14:59:14.612Z,7.27
2019-01-18T15:01:45.992Z,10.33
2019-01-18T15:04:17.482Z,7.83
2019-01-18T15:06:48.909Z,6.63
2019-01-18T15:09:20.249Z,6.00
2019-01-18T15:11:51.423Z,6.90
2019-01-18T15:14:22.960Z,6.40
2019-01-18T15:16:54.341Z,5.83
2019-01-18T15:19:26.391Z,6.80
2019-01-18T15:21:57.847Z,6.73
2019-01-18T15:24:29.307Z,6.07
2019-01-18T15:27:00.627Z,5.93
2019-01-18T15:29:32.156Z,6.30
2019-01-18T15:32:03.416Z,5.63
2019-01-18T15:34:34.917Z,6.60
2019-01-18T15:37:06.245Z,8.20
2019-01-18T15:39:37.631Z,7.70
2019-01-18T15:42:11.149Z,6.30
2019-01-18T15:44:43.189Z,7.83
2019-01-18T15:47:14.874Z,7.27
2019-01-18T15:49:46.775Z,6.90
2019-01-18T15:52:18.322Z,8.67
2019-01-18T15:54:50.169Z,9.13
2019-01-18T15:57:21.907Z,8.77
2019-01-18T15:59:54.245Z,7.23
2019-01-18T16:02:30.362Z,8.10
2019-01-18T16:05:06.546Z,8.07
2019-01-18T16:07:41.269Z,7.67
2019-01-18T16:10:13.256Z,8.83
2019-01-18T16:12:48.774Z,9.37
2019-01-18T16:15:21.864Z,10.07
2019-01-18T16:17:56.178Z,10.80
2019-01-18T16:20:28.027Z,8.03
2019-01-18T16:23:01.373Z,8.97
2019-01-18T16:25:36.601Z,9.47
2019-01-18T16:28:09.039Z,8.67
2019-01-18T16:30:39.847Z,9.70
2019-01-18T16:33:12.397Z,10.50
2019-01-18T16:35:45.007Z,10.53
2019-01-18T16:38:17.761Z,11.43
2019-01-18T16:40:49.770Z,10.17
2019-01-18T16:43:27.151Z,10.50
2019-01-18T16:45:58.732Z,10.10
2019-01-18T16:48:30.842Z,11.53
2019-01-18T16:51:02.695Z,13.40
2019-01-18T16:53:34.205Z,12.87
2019-01-18T16:56:05.930Z,9.93
2019-01-18T16:58:37.540Z,13.67
2019-01-18T17:01:10.580Z,14.73
2019-01-18T17:03:42.062Z,12.97
2019-01-18T17:06:14.350Z,15.23
2019-01-18T17:08:46.033Z,15.70
2019-01-18T17:11:17.766Z,15.77
2019-01-18T17:13:49.369Z,13.07
2019-01-18T17:16:21.573Z,14.33
2019-01-18T17:18:53.125Z,14.43
2019-01-18T17:21:25.001Z,14.47
2019-01-18T17:23:56.780Z,11.30
2019-01-18T17:26:28.533Z,12.87
2019-01-18T17:28:59.558Z,13.93
2019-01-18T17:31:31.246Z,13.10
2019-01-18T17:34:02.872Z,13.43
2019-01-18T17:37:06.829Z,12.90
2019-01-18T17:40:02.271Z,15.33
2019-01-18T17:43:13.159Z,16.23
2019-01-18T17:46:15.862Z,17.07
2019-01-18T17:49:33.196Z,17.03
2019-01-18T17:53:03.008Z,18.03
2019-01-18T17:56:26.331Z,18.13
2019-01-18T17:59:34.289Z,16.33
2019-01-18T18:02:28.771Z,14.70
2019-01-18T18:05:12.890Z,14.53
2019-01-18T18:08:14.886Z,10.30
2019-01-18T18:11:51.409Z,15.97
2019-01-18T18:15:01.298Z,14.70
2019-01-18T18:17:56.969Z,14.13
2019-01-18T18:21:20.607Z,14.17
2019-01-18T18:24:24.100Z,12.03
2019-01-18T18:27:20.459Z,10.43
2019-01-18T18:30:16.621Z,12.00
2019-01-18T18:33:24.139Z,13.03
2019-01-18T18:36:57.225Z,13.65
2019-01-18T18:40:25.567Z,16.37
2019-01-18T18:43:32.073Z,17.13
2019-01-18T18:46:47.135Z,14.35
2019-01-18T18:49:46.722Z,18.27
2019-01-18T18:53:00.251Z,18.50
2019-01-18T18:56:03.334Z,17.17
2019-01-18T18:59:44.021Z,15.63
2019-01-18T19:03:08.104Z,16.10
2019-01-18T19:06:10.015Z,15.50
2019-01-18T19:09:20.446Z,16.17
2019-01-18T19:12:16.523Z,13.73
2019-01-18T19:15:28.512Z,12.43
2019-01-18T19:18:31.844Z,11.57
2019-01-18T19:21:29.922Z,9.73
2019-01-18T19:25:09.241Z,10.47
2019-01-18T19:27:55.992Z,9.57
2019-01-18T19:31:28.643Z,11.37
2019-01-18T19:34:40.638Z,10.37
2019-01-18T19:37:58.394Z,10.30
2019-01-18T19:40:35.274Z,14.33
2019-01-18T19:43:45.115Z,7.30
2019-01-18T19:47:05.286Z,12.17
2019-01-18T19:50:01.465Z,10.93
2019-01-18T19:53:23.144Z,11.10
2019-01-18T19:56:35.848Z,10.17
2019-01-18T19:59:59.906Z,8.03
2019-01-18T20:03:03.205Z,6.60
2019-01-18T20:06:17.340Z,7.13
2019-01-18T20:09:28.291Z,7.77
2019-01-18T20:12:58.898Z,9.57
2019-01-18T20:16:13.619Z,7.77
2019-01-18T20:19:28.964Z,9.50
2019-01-18T20:22:47.625Z,10.43
2019-01-18T20:25:56.569Z,8.63
2019-01-18T20:29:20.425Z,7.67
2019-01-18T20:32:27.920Z,8.70
2019-01-18T20:35:39.068Z,7.67
2019-01-18T20:38:36.749Z,7.63
2019-01-18T20:42:01.194Z,7.50
2019-01-18T20:44:48.162Z,6.13
2019-01-18T20:47:48.357Z,5.78
2019-01-18T20:51:21.158Z,7.20
2019-01-18T20:54:09.535Z,7.23
2019-01-18T20:57:09.438Z,7.10
2019-01-18T21:00:06.603Z,7.17
2019-01-18T21:03:14.473Z,6.63
2019-01-18T21:06:12.441Z,6.70
2019-01-18T21:09:34.934Z,5.63
2019-01-18T21:12:32.298Z,4.73
2019-01-18T21:15:15.312Z,6.00
2019-01-18T21:18:16.198Z,6.67
2019-01-18T21:21:23.009Z,8.07
2019-01-18T21:24:41.397Z,5.90
2019-01-18T21:27:49.098Z,8.30
2019-01-18T21:30:52.958Z,8.33
2019-01-18T21:34:02.444Z,8.43
2019-01-18T21:37:09.095Z,8.40
2019-01-18T21:40:04.508Z,6.13
2019-01-18T21:43:03.943Z,5.17
2019-01-18T21:46:19.950Z,6.67
2019-01-18T21:49:15.675Z,6.20
2019-01-18T21:52:30.441Z,7.30
2019-01-18T21:55:23.677Z,4.85
2019-01-18T21:58:30.014Z,6.73
2019-01-18T22:01:41.276Z,6.33
2019-01-18T22:04:40.560Z,8.23
2019-01-18T22:07:46.424Z,6.33
2019-01-18T22:10:46.220Z,6.13
2019-01-18T22:13:47.003Z,7.97
2019-01-18T22:17:10.791Z,7.20
2019-01-18T22:20:22.034Z,7.03
2019-01-18T22:23:39.106Z,6.73
2019-01-18T22:26:51.800Z,6.83
2019-01-18T22:30:01.045Z,7.20
2019-01-18T22:32:39.979Z,6.73
2019-01-18T22:35:26.445Z,6.83
2019-01-18T22:38:37.715Z,7.50
2019-01-18T22:41:49.499Z,6.77
2019-01-18T22:45:12.064Z,7.13
2019-01-18T22:48:32.323Z,7.20
2019-01-18T22:51:26.662Z,6.37
2019-01-18T22:54:32.805Z,7.30
2019-01-18T22:57:18.704Z,7.67
2019-01-18T23:00:39.259Z,7.13
2019-01-18T23:03:29.119Z,6.28
2019-01-18T23:06:43.345Z,8.00
2019-01-18T23:09:43.515Z,7.93
2019-01-18T23:12:35.406Z,7.40
2019-01-18T23:15:41.890Z,7.43
2019-01-18T23:18:43.613Z,8.63
2019-01-18T23:21:48.738Z,7.53
2019-01-18T23:24:35.467Z,8.47
2019-01-18T23:28:29.982Z,5.77
2019-01-18T23:31:47.990Z,7.07
2019-01-18T23:34:49.234Z,6.80
2019-01-18T23:37:59.976Z,7.97
2019-01-18T23:41:15.830Z,7.87
2019-01-18T23:44:20.091Z,9.10
2019-01-18T23:46:47.990Z,7.40
2019-01-18T23:49:52.986Z,8.57
2019-01-18T23:53:16.939Z,8.03
2019-01-18T23:56:43.569Z,8.13
2019-01-18T23:59:44.685Z,7.58
